createdAt,value
2017-07-15T00:01:06.895Z,51.20
2017-07-15T00:03:34.675Z,51.40
2017-07-15T00:06:02.407Z,51.50
2017-07-15T00:08:30.209Z,51.70
2017-07-15T00:10:57.996Z,51.80
2017-07-15T00:13:25.789Z,52.00
2017-07-15T00:15:53.597Z,52.20
2017-07-15T00:18:21.400Z,52.20
2017-07-15T00:20:49.138Z,52.40
2017-07-15T00:23:16.914Z,52.70
2017-07-15T00:25:44.658Z,53.00
2017-07-15T00:28:12.437Z,52.70
2017-07-15T00:30:40.158Z,52.90
2017-07-15T00:33:07.901Z,53.00
2017-07-15T00:35:35.655Z,53.20
2017-07-15T00:38:03.388Z,53.30
2017-07-15T00:40:31.116Z,53.60
2017-07-15T00:42:58.856Z,53.60
2017-07-15T00:45:26.583Z,53.60
2017-07-15T00:47:54.361Z,53.70
2017-07-15T00:50:22.083Z,53.90
2017-07-15T00:52:49.805Z,54.40
2017-07-15T00:55:17.601Z,54.00
2017-07-15T00:57:45.350Z,54.30
2017-07-15T01:00:13.076Z,54.30
2017-07-15T01:02:40.800Z,54.70
2017-07-15T01:05:08.628Z,54.80
2017-07-15T01:07:36.418Z,54.90
2017-07-15T01:10:04.184Z,55.00
2017-07-15T01:12:31.968Z,55.00
2017-07-15T01:14:59.763Z,55.40
2017-07-15T01:17:27.505Z,55.90
2017-07-15T01:19:55.285Z,56.10
2017-07-15T01:22:23.014Z,56.30
2017-07-15T01:24:50.755Z,56.30
2017-07-15T01:27:18.519Z,56.10
2017-07-15T01:29:46.261Z,56.10
2017-07-15T01:32:14.006Z,56.40
2017-07-15T01:34:41.802Z,56.20
2017-07-15T01:37:09.589Z,56.40
2017-07-15T01:39:37.321Z,56.60
2017-07-15T01:42:05.047Z,56.70
2017-07-15T01:44:32.776Z,56.80
2017-07-15T01:47:00.518Z,56.80
2017-07-15T01:49:28.261Z,57.00
2017-07-15T01:51:56.038Z,57.00
2017-07-15T01:54:23.750Z,57.10
2017-07-15T01:56:51.459Z,57.40
2017-07-15T01:59:19.200Z,57.30
2017-07-15T02:01:46.978Z,57.40
2017-07-15T02:04:14.751Z,57.50
2017-07-15T02:06:42.488Z,57.40
2017-07-15T02:09:10.218Z,57.60
2017-07-15T02:11:37.928Z,57.60
2017-07-15T02:14:05.746Z,57.50
2017-07-15T02:16:33.478Z,57.70
2017-07-15T02:19:01.197Z,57.80
2017-07-15T02:21:28.987Z,57.80
2017-07-15T02:23:56.727Z,57.80
2017-07-15T02:26:24.443Z,57.60
2017-07-15T02:28:52.217Z,57.60
2017-07-15T02:31:20.036Z,57.50
2017-07-15T02:33:47.773Z,57.70
2017-07-15T02:36:15.494Z,57.90
2017-07-15T02:38:43.255Z,58.00
2017-07-15T02:41:11.049Z,57.80
2017-07-15T02:43:38.810Z,57.70
2017-07-15T02:46:06.623Z,57.80
2017-07-15T02:48:34.354Z,57.70
2017-07-15T02:51:02.122Z,57.80
2017-07-15T02:53:29.909Z,57.80
2017-07-15T02:55:57.689Z,57.90
2017-07-15T02:58:25.465Z,57.80
2017-07-15T03:00:53.280Z,57.90
2017-07-15T03:03:21.058Z,57.90
2017-07-15T03:05:48.771Z,57.90
2017-07-15T03:08:16.493Z,57.90
2017-07-15T03:10:44.266Z,58.00
2017-07-15T03:13:11.977Z,57.90
2017-07-15T03:15:39.794Z,57.80
2017-07-15T03:18:07.528Z,58.50
2017-07-15T03:20:35.245Z,58.10
2017-07-15T03:23:02.985Z,58.70
2017-07-15T03:25:30.723Z,59.10
2017-07-15T03:27:58.446Z,59.40
2017-07-15T03:30:26.237Z,59.50
2017-07-15T03:32:54.726Z,59.80
2017-07-15T03:35:22.459Z,60.00
2017-07-15T03:37:50.254Z,60.60
2017-07-15T03:40:18.027Z,60.90
2017-07-15T03:42:45.734Z,60.80
2017-07-15T03:45:13.537Z,60.20
2017-07-15T03:47:41.302Z,60.20
2017-07-15T03:50:09.037Z,60.00
2017-07-15T03:52:36.775Z,59.80
2017-07-15T03:55:04.511Z,59.60
2017-07-15T03:57:32.221Z,59.70
2017-07-15T04:00:00.869Z,59.60
2017-07-15T04:02:28.636Z,59.60
2017-07-15T04:04:56.357Z,59.70
2017-07-15T04:07:24.097Z,59.90
2017-07-15T04:09:51.811Z,60.00
2017-07-15T04:12:19.591Z,59.90
2017-07-15T04:14:47.336Z,60.10
2017-07-15T04:17:15.046Z,59.90
2017-07-15T04:19:42.757Z,59.70
2017-07-15T04:22:10.477Z,59.60
2017-07-15T04:24:38.263Z,59.80
2017-07-15T04:27:05.968Z,59.60
2017-07-15T04:29:33.678Z,59.40
2017-07-15T04:32:01.489Z,59.50
2017-07-15T04:34:29.204Z,59.60
2017-07-15T04:36:56.975Z,59.30
2017-07-15T04:39:24.686Z,59.40
2017-07-15T04:41:52.454Z,59.30
2017-07-15T04:44:20.174Z,59.30
2017-07-15T04:46:47.884Z,59.20
2017-07-15T04:49:15.673Z,59.10
2017-07-15T04:51:43.480Z,59.00
2017-07-15T04:54:11.206Z,59.20
2017-07-15T04:56:39.021Z,59.10
2017-07-15T04:59:06.761Z,59.00
2017-07-15T05:01:34.490Z,59.80
2017-07-15T05:04:02.251Z,59.00
2017-07-15T05:06:30.869Z,58.90
2017-07-15T05:08:58.606Z,59.00
2017-07-15T05:11:26.315Z,58.80
2017-07-15T05:13:54.124Z,58.80
2017-07-15T05:16:21.863Z,58.90
2017-07-15T05:18:49.672Z,59.00
2017-07-15T05:21:17.448Z,59.30
2017-07-15T05:23:46.105Z,59.30
2017-07-15T05:26:13.875Z,59.30
2017-07-15T05:28:41.603Z,59.30
2017-07-15T05:31:09.382Z,59.40
2017-07-15T05:33:37.097Z,59.00
2017-07-15T05:36:04.871Z,59.20
2017-07-15T05:38:32.603Z,59.10
2017-07-15T05:41:00.425Z,59.40
2017-07-15T05:43:28.186Z,59.10
2017-07-15T05:45:55.970Z,58.40
2017-07-15T05:48:23.709Z,58.60
2017-07-15T05:50:51.515Z,58.40
2017-07-15T05:53:19.296Z,58.30
2017-07-15T05:55:47.027Z,57.40
2017-07-15T05:58:14.759Z,57.40
2017-07-15T06:00:42.551Z,57.50
2017-07-15T06:03:10.311Z,57.50
2017-07-15T06:05:38.025Z,57.00
2017-07-15T06:08:05.813Z,56.60
2017-07-15T06:10:33.603Z,56.70
2017-07-15T06:13:01.311Z,55.90
2017-07-15T06:15:29.038Z,55.50
2017-07-15T06:17:56.753Z,55.30
2017-07-15T06:20:24.484Z,54.80
2017-07-15T06:22:52.247Z,54.30
2017-07-15T06:25:20.031Z,54.50
2017-07-15T06:27:47.748Z,55.00
2017-07-15T06:30:15.485Z,54.90
2017-07-15T06:32:43.214Z,54.80
2017-07-15T06:35:10.991Z,55.10
2017-07-15T06:37:38.780Z,54.50
2017-07-15T06:40:06.505Z,54.90
2017-07-15T06:42:34.291Z,55.00
2017-07-15T06:45:02.108Z,55.40
2017-07-15T06:47:31.007Z,55.40
2017-07-15T06:49:58.818Z,55.70
2017-07-15T06:52:26.624Z,55.20
2017-07-15T06:54:54.451Z,55.00
2017-07-15T06:57:22.160Z,54.90
2017-07-15T06:59:50.002Z,53.90
2017-07-15T07:02:17.724Z,53.50
2017-07-15T07:04:49.136Z,54.00
2017-07-15T07:07:30.612Z,53.90
2017-07-15T07:09:59.021Z,53.70
2017-07-15T07:12:26.833Z,53.20
2017-07-15T07:14:54.669Z,52.70
2017-07-15T07:20:31.514Z,53.20
2017-07-15T07:23:01.061Z,53.50
2017-07-15T07:25:34.461Z,53.30
2017-07-15T07:28:02.854Z,52.60
2017-07-15T07:30:31.832Z,53.70
2017-07-15T07:33:00.607Z,53.20
2017-07-15T07:35:28.468Z,52.80
2017-07-15T07:37:56.210Z,52.40
2017-07-15T07:40:24.800Z,52.50
2017-07-15T07:42:52.597Z,52.00
2017-07-15T07:45:20.425Z,52.20
2017-07-15T07:47:48.149Z,52.90
2017-07-15T07:50:16.653Z,53.20
2017-07-15T07:52:44.576Z,52.80
2017-07-15T07:55:12.328Z,53.10
2017-07-15T07:57:40.167Z,53.40
2017-07-15T08:00:07.934Z,52.90
2017-07-15T08:02:36.133Z,53.60
2017-07-15T08:05:03.902Z,52.90
2017-07-15T08:07:31.616Z,53.10
2017-07-15T08:09:59.351Z,53.20
2017-07-15T08:12:27.074Z,53.20
2017-07-15T08:14:54.802Z,53.00
2017-07-15T08:17:22.766Z,52.90
2017-07-15T08:19:50.585Z,52.90
2017-07-15T08:22:18.356Z,53.40
2017-07-15T08:24:47.054Z,52.90
2017-07-15T08:27:14.899Z,52.80
2017-07-15T08:29:42.669Z,53.00
2017-07-15T08:32:10.390Z,52.90
2017-07-15T08:34:38.841Z,53.10
2017-07-15T08:37:06.615Z,53.10
2017-07-15T08:39:34.399Z,52.90
2017-07-15T08:42:02.163Z,53.10
2017-07-15T08:44:29.932Z,53.20
2017-07-15T08:46:57.704Z,53.40
2017-07-15T08:49:25.443Z,53.70
2017-07-15T08:51:53.525Z,53.70
2017-07-15T08:54:21.324Z,53.50
2017-07-15T08:56:49.048Z,53.50
2017-07-15T08:59:16.831Z,53.10
2017-07-15T09:01:44.700Z,53.50
2017-07-15T09:04:12.674Z,53.00
2017-07-15T09:06:41.282Z,53.00
2017-07-15T09:09:09.068Z,53.30
2017-07-15T09:11:39.588Z,52.80
2017-07-15T09:14:08.862Z,53.20
2017-07-15T09:16:36.589Z,53.50
2017-07-15T09:19:04.396Z,53.30
2017-07-15T09:21:32.183Z,53.10
2017-07-15T09:23:59.998Z,53.50
2017-07-15T09:26:28.628Z,54.00
2017-07-15T09:28:56.395Z,53.80
2017-07-15T09:31:25.690Z,53.70
2017-07-15T09:33:55.268Z,53.90
2017-07-15T09:36:23.064Z,53.60
2017-07-15T09:38:50.937Z,53.50
2017-07-15T09:41:18.712Z,52.40
2017-07-15T09:43:46.488Z,52.00
2017-07-15T09:46:14.202Z,52.10
2017-07-15T09:48:43.287Z,50.60
2017-07-15T09:51:15.167Z,51.30
2017-07-15T09:53:45.334Z,51.80
2017-07-15T09:56:14.448Z,52.10
2017-07-15T09:58:43.669Z,52.10
2017-07-15T10:01:11.427Z,51.70
2017-07-15T10:03:39.158Z,52.00
2017-07-15T10:06:07.406Z,52.00
2017-07-15T10:08:37.812Z,51.90
2017-07-15T10:11:07.059Z,51.10
2017-07-15T10:13:39.035Z,51.60
2017-07-15T10:16:06.872Z,51.30
2017-07-15T10:18:34.669Z,51.50
2017-07-15T10:21:02.507Z,50.30
2017-07-15T10:23:30.297Z,49.40
2017-07-15T10:25:59.139Z,49.60
2017-07-15T10:28:27.681Z,49.70
2017-07-15T10:30:57.104Z,50.30
2017-07-15T10:36:30.939Z,50.60
2017-07-15T10:38:59.028Z,49.50
2017-07-15T10:41:27.309Z,48.80
2017-07-15T10:43:55.208Z,49.70
2017-07-15T10:46:23.915Z,48.20
2017-07-15T10:48:51.720Z,46.70
2017-07-15T10:51:19.545Z,46.40
2017-07-15T10:53:47.381Z,47.80
2017-07-15T10:56:15.132Z,47.40
2017-07-15T11:01:44.093Z,46.40
2017-07-15T11:04:11.925Z,45.10
2017-07-15T11:06:39.738Z,45.70
2017-07-15T11:09:07.582Z,45.90
2017-07-15T11:11:35.359Z,47.00
2017-07-15T11:14:03.066Z,47.00
2017-07-15T11:16:30.835Z,47.20
2017-07-15T11:18:58.658Z,47.40
2017-07-15T11:21:27.051Z,47.30
2017-07-15T11:23:54.855Z,47.40
2017-07-15T11:26:22.553Z,47.30
2017-07-15T11:28:50.333Z,46.90
2017-07-15T11:31:18.103Z,46.40
2017-07-15T11:33:45.851Z,46.40
2017-07-15T11:36:13.899Z,45.90
2017-07-15T11:38:42.056Z,46.30
2017-07-15T11:41:09.829Z,46.00
2017-07-15T11:43:37.644Z,47.30
2017-07-15T11:46:05.402Z,45.60
2017-07-15T11:48:33.157Z,45.90
2017-07-15T11:51:00.884Z,46.20
2017-07-15T11:53:29.514Z,46.40
2017-07-15T11:55:57.318Z,46.00
2017-07-15T11:58:25.100Z,45.40
2017-07-15T12:00:52.828Z,46.30
2017-07-15T12:03:20.555Z,46.10
2017-07-15T12:05:48.368Z,44.70
2017-07-15T12:08:16.085Z,45.30
2017-07-15T12:10:43.794Z,45.50
2017-07-15T12:13:11.503Z,44.80
2017-07-15T12:15:39.651Z,45.20
2017-07-15T12:18:07.470Z,45.00
2017-07-15T12:20:35.262Z,45.60
2017-07-15T12:23:02.999Z,45.30
2017-07-15T12:25:30.880Z,45.00
2017-07-15T12:27:58.657Z,44.80
2017-07-15T12:30:26.408Z,43.20
2017-07-15T12:32:54.180Z,44.10
2017-07-15T12:35:22.908Z,43.90
2017-07-15T12:37:50.682Z,42.20
2017-07-15T12:40:18.472Z,42.30
2017-07-15T12:42:46.182Z,43.00
2017-07-15T12:45:13.886Z,43.00
2017-07-15T12:47:41.649Z,41.80
2017-07-15T12:50:09.439Z,41.70
2017-07-15T12:52:37.188Z,41.10
2017-07-15T12:55:04.923Z,40.90
2017-07-15T12:57:32.699Z,42.30
2017-07-15T13:00:00.463Z,41.70
2017-07-15T13:02:28.199Z,42.20
2017-07-15T13:04:55.987Z,41.80
2017-07-15T13:07:23.701Z,40.60
2017-07-15T13:09:52.975Z,41.50
2017-07-15T13:12:21.232Z,41.80
2017-07-15T13:14:50.357Z,42.10
2017-07-15T13:17:18.230Z,42.40
2017-07-15T13:19:46.004Z,41.30
2017-07-15T13:22:13.922Z,41.70
2017-07-15T13:24:42.894Z,41.80
2017-07-15T13:27:11.390Z,42.20
2017-07-15T13:29:39.736Z,42.00
2017-07-15T13:32:08.361Z,40.90
2017-07-15T13:34:36.390Z,42.30
2017-07-15T13:37:05.240Z,40.80
2017-07-15T13:39:33.122Z,40.70
2017-07-15T13:42:01.509Z,40.60
2017-07-15T13:44:30.602Z,41.70
2017-07-15T13:46:58.554Z,42.00
2017-07-15T13:49:27.686Z,39.00
2017-07-15T13:51:56.821Z,39.00
2017-07-15T13:54:24.678Z,39.30
2017-07-15T13:56:52.853Z,40.10
2017-07-15T13:59:20.716Z,40.00
2017-07-15T14:01:48.611Z,37.40
2017-07-15T14:04:16.492Z,37.00
2017-07-15T14:06:45.547Z,35.70
2017-07-15T14:09:13.957Z,37.10
2017-07-15T14:11:41.982Z,36.30
2017-07-15T14:14:09.783Z,37.30
2017-07-15T14:16:37.569Z,37.30
2017-07-15T14:19:06.394Z,37.60
2017-07-15T14:21:35.662Z,38.30
2017-07-15T14:24:05.838Z,39.20
2017-07-15T14:26:33.933Z,39.80
2017-07-15T14:29:03.218Z,38.50
2017-07-15T14:31:43.975Z,37.70
2017-07-15T14:34:11.935Z,36.60
2017-07-15T14:36:39.655Z,36.50
2017-07-15T14:39:07.411Z,37.30
2017-07-15T14:41:45.154Z,37.20
2017-07-15T14:44:12.944Z,37.80
2017-07-15T14:46:40.845Z,35.90
2017-07-15T14:49:08.641Z,36.20
2017-07-15T14:51:36.420Z,36.80
2017-07-15T14:54:04.220Z,36.10
2017-07-15T14:56:31.970Z,34.60
2017-07-15T14:58:59.782Z,35.20
2017-07-15T15:01:27.598Z,34.10
2017-07-15T15:03:55.413Z,34.60
2017-07-15T15:06:23.164Z,33.60
2017-07-15T15:08:50.959Z,32.30
2017-07-15T15:11:18.677Z,34.30
2017-07-15T15:13:46.741Z,34.50
2017-07-15T15:16:14.542Z,34.80
2017-07-15T15:18:42.354Z,34.60
2017-07-15T15:21:10.166Z,34.30
2017-07-15T15:23:38.142Z,33.80
2017-07-15T15:26:05.915Z,32.80
2017-07-15T15:28:33.654Z,33.30
2017-07-15T15:31:01.739Z,33.30
2017-07-15T15:33:29.512Z,34.10
2017-07-15T15:35:57.304Z,34.00
2017-07-15T15:38:25.028Z,34.30
2017-07-15T15:40:52.851Z,34.80
2017-07-15T15:43:20.672Z,35.50
2017-07-15T15:45:48.446Z,35.90
2017-07-15T15:48:16.212Z,36.50
2017-07-15T15:50:43.959Z,37.50
2017-07-15T15:53:12.279Z,37.80
2017-07-15T15:55:40.733Z,38.20
2017-07-15T15:58:08.571Z,38.40
2017-07-15T16:00:36.403Z,39.00
2017-07-15T16:03:04.216Z,39.20
2017-07-15T16:05:32.024Z,39.40
2017-07-15T16:07:59.788Z,39.40
2017-07-15T16:10:27.570Z,39.70
2017-07-15T16:12:56.524Z,39.50
2017-07-15T16:15:26.829Z,40.00
2017-07-15T16:18:02.422Z,39.10
2017-07-15T16:20:30.793Z,39.40
2017-07-15T16:22:58.613Z,39.20
2017-07-15T16:25:26.428Z,39.30
2017-07-15T16:27:54.307Z,39.80
2017-07-15T16:30:22.091Z,38.00
2017-07-15T16:32:50.025Z,36.50
2017-07-15T16:35:17.863Z,36.30
2017-07-15T16:37:46.639Z,36.20
2017-07-15T16:40:14.422Z,35.40
2017-07-15T16:42:42.364Z,35.40
2017-07-15T16:45:10.197Z,35.00
2017-07-15T16:47:38.022Z,35.00
2017-07-15T16:50:05.854Z,35.10
2017-07-15T16:52:33.688Z,34.90
2017-07-15T16:55:01.444Z,34.80
2017-07-15T16:57:29.247Z,34.80
2017-07-15T16:59:57.697Z,35.00
2017-07-15T17:02:40.111Z,34.90
2017-07-15T17:05:08.903Z,34.80
2017-07-15T17:07:37.335Z,35.00
2017-07-15T17:10:12.161Z,35.10
2017-07-15T17:12:40.040Z,35.90
2017-07-15T17:15:08.785Z,35.60
2017-07-15T17:17:59.879Z,35.90
2017-07-15T17:20:27.693Z,36.00
2017-07-15T17:22:58.562Z,36.60
2017-07-15T17:27:59.365Z,35.70
2017-07-15T17:30:27.079Z,35.60
2017-07-15T17:32:54.925Z,34.80
2017-07-15T17:35:22.776Z,34.70
2017-07-15T17:37:51.400Z,34.70
2017-07-15T17:40:19.198Z,34.80
2017-07-15T17:42:46.980Z,35.00
2017-07-15T17:45:14.721Z,35.30
2017-07-15T17:47:42.439Z,36.10
2017-07-15T17:50:10.160Z,36.10
2017-07-15T17:52:37.900Z,36.10
2017-07-15T17:55:05.643Z,35.70
2017-07-15T17:57:33.473Z,35.80
2017-07-15T18:00:01.253Z,35.50
2017-07-15T18:02:28.981Z,35.30
2017-07-15T18:04:56.758Z,35.60
2017-07-15T18:07:24.519Z,35.10
2017-07-15T18:09:52.295Z,34.60
2017-07-15T18:12:20.125Z,34.50
2017-07-15T18:14:47.930Z,34.30
2017-07-15T18:17:15.649Z,34.30
2017-07-15T18:19:43.356Z,34.20
2017-07-15T18:22:11.114Z,34.50
2017-07-15T18:24:38.912Z,34.90
2017-07-15T18:27:06.713Z,35.20
2017-07-15T18:29:34.430Z,35.60
2017-07-15T18:32:02.224Z,36.00
2017-07-15T18:34:29.950Z,36.00
2017-07-15T18:36:57.655Z,36.50
2017-07-15T18:39:26.279Z,36.80
2017-07-15T18:41:54.102Z,37.00
2017-07-15T18:44:21.816Z,37.30
2017-07-15T18:46:49.526Z,37.70
2017-07-15T18:49:17.298Z,37.70
2017-07-15T18:51:45.084Z,37.80
2017-07-15T18:54:12.822Z,38.00
2017-07-15T18:56:40.536Z,38.20
2017-07-15T18:59:08.321Z,38.20
2017-07-15T19:01:36.109Z,38.40
2017-07-15T19:04:03.821Z,38.70
2017-07-15T19:06:31.594Z,39.00
2017-07-15T19:08:59.316Z,39.40
2017-07-15T19:11:27.031Z,39.80
2017-07-15T19:13:54.744Z,40.00
2017-07-15T19:16:22.513Z,40.40
2017-07-15T19:18:50.287Z,40.70
2017-07-15T19:21:18.063Z,41.00
2017-07-15T19:23:45.835Z,41.40
2017-07-15T19:26:13.605Z,41.60
2017-07-15T19:28:41.374Z,41.90
2017-07-15T19:31:09.095Z,42.00
2017-07-15T19:33:36.860Z,42.30
2017-07-15T19:36:04.576Z,42.40
2017-07-15T19:38:32.366Z,42.70
2017-07-15T19:41:00.074Z,42.80
2017-07-15T19:43:27.850Z,43.00
2017-07-15T19:45:55.582Z,43.10
2017-07-15T19:48:23.342Z,43.30
2017-07-15T19:50:51.051Z,43.50
2017-07-15T19:53:18.777Z,43.60
2017-07-15T19:55:46.506Z,43.70
2017-07-15T19:58:14.232Z,43.90
2017-07-15T20:00:42.011Z,44.10
2017-07-15T20:03:09.793Z,44.10
2017-07-15T20:05:37.522Z,44.30
2017-07-15T20:08:05.254Z,44.40
2017-07-15T20:10:33.022Z,44.50
2017-07-15T20:13:00.722Z,44.60
2017-07-15T20:15:28.498Z,44.50
2017-07-15T20:17:56.258Z,44.40
2017-07-15T20:20:23.981Z,44.40
2017-07-15T20:22:51.912Z,44.30
2017-07-15T20:25:19.629Z,44.30
2017-07-15T20:27:47.405Z,44.10
2017-07-15T20:30:15.134Z,44.00
2017-07-15T20:32:42.900Z,44.00
2017-07-15T20:35:10.611Z,43.90
2017-07-15T20:37:38.358Z,43.80
2017-07-15T20:40:06.144Z,43.80
2017-07-15T20:42:33.921Z,43.70
2017-07-15T20:45:01.709Z,43.70
2017-07-15T20:47:29.486Z,43.60
2017-07-15T20:49:57.191Z,43.60
2017-07-15T20:52:30.707Z,43.60
2017-07-15T20:54:58.446Z,43.50
2017-07-15T20:57:26.226Z,43.40
2017-07-15T20:59:53.934Z,43.50
2017-07-15T21:02:21.704Z,43.50
2017-07-15T21:04:49.417Z,43.40
2017-07-15T21:07:17.195Z,43.50
2017-07-15T21:09:44.912Z,43.50
2017-07-15T21:12:12.637Z,43.40
2017-07-15T21:14:40.359Z,43.40
2017-07-15T21:17:08.081Z,43.30
2017-07-15T21:19:35.794Z,43.40
2017-07-15T21:22:03.573Z,43.40
2017-07-15T21:24:31.341Z,43.40
2017-07-15T21:26:59.109Z,43.50
2017-07-15T21:29:26.847Z,43.70
2017-07-15T21:31:54.575Z,43.90
2017-07-15T21:34:22.293Z,43.90
2017-07-15T21:36:50.072Z,43.70
2017-07-15T21:39:17.844Z,44.00
2017-07-15T21:41:45.556Z,44.00
2017-07-15T21:44:13.274Z,43.90
2017-07-15T21:46:41.293Z,43.70
2017-07-15T21:49:09.065Z,44.00
2017-07-15T21:51:36.808Z,44.10
2017-07-15T21:54:04.543Z,44.20
2017-07-15T21:56:32.214Z,44.10
2017-07-15T21:58:59.941Z,44.20
2017-07-15T22:01:27.605Z,44.40
2017-07-15T22:03:55.335Z,44.30
2017-07-15T22:06:23.032Z,44.30
2017-07-15T22:08:50.760Z,44.40
2017-07-15T22:11:21.043Z,44.30
2017-07-15T22:13:48.892Z,44.30
2017-07-15T22:16:17.795Z,44.50
2017-07-15T22:18:47.134Z,45.40
2017-07-15T22:21:14.858Z,46.80
2017-07-15T22:23:42.575Z,47.50
2017-07-15T22:26:10.387Z,48.00
2017-07-15T22:28:41.793Z,47.70
2017-07-15T22:31:09.503Z,48.00
2017-07-15T22:33:37.245Z,48.40
2017-07-15T22:36:05.012Z,48.30
2017-07-15T22:38:32.723Z,48.10
2017-07-15T22:41:00.605Z,48.30
2017-07-15T22:43:28.384Z,48.20
2017-07-15T22:45:56.085Z,47.50
2017-07-15T22:48:23.776Z,47.20
2017-07-15T22:50:51.657Z,47.00
2017-07-15T22:53:19.483Z,47.30
2017-07-15T22:55:47.172Z,47.00
2017-07-15T22:58:14.869Z,47.00
2017-07-15T23:00:42.567Z,47.00
2017-07-15T23:03:10.317Z,47.00
2017-07-15T23:05:38.024Z,47.30
2017-07-15T23:08:05.813Z,47.60
2017-07-15T23:10:33.550Z,47.70
2017-07-15T23:13:01.244Z,47.90
2017-07-15T23:15:28.928Z,47.90
2017-07-15T23:17:56.626Z,48.30
2017-07-15T23:20:24.380Z,48.40
2017-07-15T23:22:52.121Z,48.30
2017-07-15T23:25:19.830Z,47.80
2017-07-15T23:27:47.558Z,48.00
2017-07-15T23:30:15.297Z,47.90
2017-07-15T23:32:43.056Z,48.00
2017-07-15T23:35:10.811Z,47.90
2017-07-15T23:37:38.505Z,47.90
2017-07-15T23:40:06.984Z,48.30
2017-07-15T23:42:34.812Z,48.80
2017-07-15T23:45:02.857Z,49.10
2017-07-15T23:47:30.582Z,49.20
2017-07-15T23:49:58.302Z,49.20
2017-07-15T23:52:25.989Z,48.80
2017-07-15T23:54:53.725Z,48.40
2017-07-15T23:57:21.462Z,48.10
2017-07-15T23:59:49.152Z,48.00
